Arrowsic, Maine
Current Conditions -  °F | °C
As of 10:53 AM on Monday 26 Jan 2015 (Local Time) from KIWI Reporting Station
Clear Clear  
Wind Chill:   Ceiling: Unl
Heat Index: 15°   Visibility: 10mi
Dew Point: -7°   Wind: 6mph
Humidity: 37%   Direction: NA
Pressure: 30.23"   Gusts: NA
Location:  43.8797°N, 69.8408°W
Report Text: KIWI 261553Z AUTO VRB05KT 10SM CLR M09/M22 A3023 RMK AO2 SLP237 T10941217
Loading
Personal Weather Stations






























Interactive Weather Map New forecast layout! Learn more

10-Day Weather Forecast

Advertisements
Track Severe Weather on mobile